createdAt,value
2024-04-30T00:01:50.612Z,62425.56
2024-04-30T00:04:17.952Z,62416.69
2024-04-30T00:06:50.383Z,62417.75
2024-04-30T00:09:17.882Z,62427.03
2024-04-30T00:11:47.845Z,62398.97
2024-04-30T00:14:15.098Z,62407.56
2024-04-30T00:16:45.285Z,62383.16
2024-04-30T00:19:12.664Z,62400.53
2024-04-30T00:21:43.355Z,62366.50
2024-04-30T00:24:13.219Z,62369.16
2024-04-30T00:26:43.074Z,62383.69
2024-04-30T00:29:10.194Z,62371.41
2024-04-30T00:31:43.331Z,62377.28
2024-04-30T00:34:10.513Z,62389.19
2024-04-30T00:36:40.834Z,62369.78
2024-04-30T00:39:09.695Z,62361.66
2024-04-30T00:41:42.344Z,62363.28
2024-04-30T00:44:09.561Z,62358.88
2024-04-30T00:46:39.554Z,62357.72
2024-04-30T00:49:07.366Z,62368.69
2024-04-30T00:51:37.427Z,62370.84
2024-04-30T00:54:05.152Z,62364.28
2024-04-30T00:56:35.179Z,62372.94
2024-04-30T00:59:04.983Z,62376.19
2024-04-30T01:01:35.486Z,62360.09
2024-04-30T01:04:02.805Z,62355.03
2024-04-30T01:06:32.569Z,62352.84
2024-04-30T01:08:59.701Z,62366.44
2024-04-30T01:11:29.586Z,62356.72
2024-04-30T01:13:56.780Z,62364.22
2024-04-30T01:16:29.307Z,62365.38
2024-04-30T01:18:56.603Z,62367.06
2024-04-30T01:21:26.347Z,62354.00
2024-04-30T01:23:56.225Z,62361.09
2024-04-30T01:26:25.988Z,62362.66
2024-04-30T01:28:53.255Z,62342.78
2024-04-30T01:31:23.074Z,62360.56
2024-04-30T01:33:50.291Z,62356.09
2024-04-30T01:36:20.188Z,62358.34
2024-04-30T01:38:47.291Z,62350.31
2024-04-30T01:41:19.755Z,62343.91
2024-04-30T01:43:46.894Z,62336.69
2024-04-30T01:46:16.710Z,62332.41
2024-04-30T01:48:43.905Z,62318.38
2024-04-30T01:51:13.657Z,62311.28
2024-04-30T01:53:44.675Z,62315.19
2024-04-30T01:56:14.595Z,62323.72
2024-04-30T01:58:44.350Z,62308.09
2024-04-30T02:01:14.211Z,62333.97
2024-04-30T02:03:41.383Z,62333.97
2024-04-30T02:06:11.210Z,62316.75
2024-04-30T02:08:38.356Z,62342.03
2024-04-30T02:11:08.759Z,62332.41
2024-04-30T02:13:36.007Z,62326.88
2024-04-30T02:16:08.875Z,62285.41
2024-04-30T02:18:36.042Z,62294.06
2024-04-30T02:21:05.844Z,62286.41
2024-04-30T02:23:33.004Z,62277.84
2024-04-30T02:26:03.217Z,62283.72
2024-04-30T02:28:30.887Z,62288.03
2024-04-30T02:31:16.824Z,62293.38
2024-04-30T02:34:05.523Z,62281.00
2024-04-30T02:36:35.330Z,62286.50
2024-04-30T02:39:07.248Z,62283.16
2024-04-30T02:41:37.278Z,62297.22
2024-04-30T02:44:04.603Z,62300.53
2024-04-30T02:46:34.519Z,62291.19
2024-04-30T02:49:04.766Z,62275.22
2024-04-30T02:51:34.575Z,62298.84
2024-04-30T02:54:01.785Z,62294.53
2024-04-30T02:56:31.589Z,62278.25
2024-04-30T02:58:58.715Z,62255.75
2024-04-30T03:01:28.569Z,62267.50
2024-04-30T03:03:55.768Z,62240.50
2024-04-30T03:06:28.255Z,62239.34
2024-04-30T03:08:55.626Z,62242.56
2024-04-30T03:11:25.495Z,62234.06
2024-04-30T03:13:52.684Z,62230.22
2024-04-30T03:16:22.481Z,62227.44
2024-04-30T03:18:49.759Z,62213.41
2024-04-30T03:21:19.520Z,62192.88
2024-04-30T03:23:49.309Z,62205.91
2024-04-30T03:26:19.076Z,62208.69
2024-04-30T03:28:46.253Z,62204.78
2024-04-30T03:31:17.487Z,62190.34
2024-04-30T03:33:44.767Z,62191.34
2024-04-30T03:36:14.584Z,62176.75
2024-04-30T03:38:44.426Z,62183.16
2024-04-30T03:41:17.795Z,62175.75
2024-04-30T03:43:47.601Z,62155.78
2024-04-30T03:46:17.522Z,62182.78
2024-04-30T03:48:47.427Z,62199.97
2024-04-30T03:51:14.604Z,62183.84
2024-04-30T03:53:44.411Z,62204.91
2024-04-30T03:56:14.297Z,62212.94
2024-04-30T03:58:44.129Z,62217.31
2024-04-30T04:01:13.985Z,62203.16
2024-04-30T04:03:41.210Z,62178.53
2024-04-30T04:06:12.630Z,62185.94
2024-04-30T04:08:41.657Z,62199.91
2024-04-30T04:11:27.057Z,62188.63
2024-04-30T04:14:15.540Z,62193.03
2024-04-30T04:16:45.319Z,62188.63
2024-04-30T04:19:15.422Z,62200.97
2024-04-30T04:21:45.179Z,62198.97
2024-04-30T04:24:14.940Z,62200.06
2024-04-30T04:26:42.075Z,62199.50
2024-04-30T04:29:14.477Z,62216.25
2024-04-30T04:31:41.762Z,62231.31
2024-04-30T04:34:11.646Z,62224.97
2024-04-30T04:36:38.807Z,62229.16
2024-04-30T04:39:08.649Z,62233.47
2024-04-30T04:41:35.881Z,62231.38
2024-04-30T04:44:05.710Z,62235.16
2024-04-30T04:46:35.836Z,62236.63
2024-04-30T04:49:07.998Z,62248.00
2024-04-30T04:51:35.361Z,62253.53
2024-04-30T04:54:05.200Z,62252.38
2024-04-30T04:56:32.519Z,62259.84
2024-04-30T04:59:02.305Z,62269.03
2024-04-30T05:01:29.487Z,62269.19
2024-04-30T05:04:02.197Z,62271.91
2024-04-30T05:06:29.469Z,62279.41
2024-04-30T05:08:59.231Z,62277.91
2024-04-30T05:11:27.644Z,62277.31
2024-04-30T05:13:57.446Z,62298.22
2024-04-30T05:16:24.748Z,62299.31
2024-04-30T05:18:54.511Z,62293.03
2024-04-30T05:21:24.311Z,62303.78
2024-04-30T05:23:54.058Z,62311.28
2024-04-30T05:26:21.229Z,62323.19
2024-04-30T05:28:51.003Z,62333.91
2024-04-30T05:31:18.199Z,62333.50
2024-04-30T05:33:48.013Z,62351.28
2024-04-30T05:36:15.345Z,62340.47
2024-04-30T05:38:47.743Z,62388.56
2024-04-30T05:41:14.908Z,62403.25
2024-04-30T05:43:44.791Z,62425.97
2024-04-30T05:46:12.074Z,62441.19
2024-04-30T05:48:41.865Z,62457.91
2024-04-30T05:51:09.054Z,62474.13
2024-04-30T05:53:39.726Z,62494.03
2024-04-30T05:56:09.686Z,62497.63
2024-04-30T05:58:39.532Z,62518.16
2024-04-30T06:01:06.858Z,62523.44
2024-04-30T06:03:36.849Z,62557.03
2024-04-30T06:06:08.562Z,62563.09
2024-04-30T06:08:41.541Z,62586.34
2024-04-30T06:11:11.651Z,62597.09
2024-04-30T06:13:41.500Z,62605.31
2024-04-30T06:16:08.758Z,62610.25
2024-04-30T06:18:38.613Z,62613.97
2024-04-30T06:21:06.600Z,62638.38
2024-04-30T06:23:37.605Z,62645.41
2024-04-30T06:26:04.894Z,62669.25
2024-04-30T06:28:37.351Z,62679.59
2024-04-30T06:31:05.019Z,62679.47
2024-04-30T06:33:34.893Z,62688.78
2024-04-30T06:36:02.127Z,62702.94
2024-04-30T06:38:32.229Z,62720.91
2024-04-30T06:40:59.473Z,62719.69
2024-04-30T06:43:29.375Z,62701.38
2024-04-30T06:45:59.278Z,62712.75
2024-04-30T06:48:29.161Z,62697.03
2024-04-30T06:50:56.340Z,62687.88
2024-04-30T06:53:28.359Z,62696.91
2024-04-30T06:56:01.417Z,62728.91
2024-04-30T06:58:31.224Z,62726.88
2024-04-30T07:01:01.122Z,62738.25
2024-04-30T07:03:30.947Z,62738.81
2024-04-30T07:05:58.117Z,62753.31
2024-04-30T07:08:27.867Z,62755.56
2024-04-30T07:10:55.503Z,62782.69
2024-04-30T07:13:25.999Z,62776.84
2024-04-30T07:15:53.196Z,62825.56
2024-04-30T07:18:25.787Z,62812.59
2024-04-30T07:20:52.961Z,62828.28
2024-04-30T07:23:22.729Z,62839.19
2024-04-30T07:25:49.914Z,62842.94
2024-04-30T07:28:19.735Z,62839.75
2024-04-30T07:30:46.876Z,62864.13
2024-04-30T07:33:17.486Z,62877.34
2024-04-30T07:35:48.277Z,62865.19
2024-04-30T07:38:20.849Z,62895.16
2024-04-30T07:40:48.047Z,62897.88
2024-04-30T07:43:17.880Z,62900.47
2024-04-30T07:45:45.012Z,62920.56
2024-04-30T07:48:14.947Z,62949.47
2024-04-30T07:50:42.179Z,62934.91
2024-04-30T07:53:14.581Z,62938.03
2024-04-30T07:55:45.708Z,62926.63
2024-04-30T07:58:15.535Z,62945.66
2024-04-30T08:00:45.639Z,62925.13
2024-04-30T08:03:12.840Z,62954.38
2024-04-30T08:05:43.579Z,62987.53
2024-04-30T08:08:14.408Z,63013.69
2024-04-30T08:10:44.494Z,63004.44
2024-04-30T08:13:14.339Z,63013.69
2024-04-30T08:15:41.641Z,63017.50
2024-04-30T08:18:13.880Z,62994.59
2024-04-30T08:20:41.121Z,63005.47
2024-04-30T08:23:10.962Z,63019.13
2024-04-30T08:25:40.869Z,63051.81
2024-04-30T08:28:11.533Z,63068.09
2024-04-30T08:30:39.270Z,63034.38
2024-04-30T08:33:09.729Z,63037.56
2024-04-30T08:35:39.605Z,63076.81
2024-04-30T08:38:07.888Z,63106.28
2024-04-30T08:40:38.090Z,63107.31
2024-04-30T08:43:09.417Z,63105.63
2024-04-30T08:45:41.232Z,63101.84
2024-04-30T08:48:10.005Z,63117.66
2024-04-30T08:50:41.572Z,63111.59
2024-04-30T08:53:10.126Z,63082.25
2024-04-30T08:55:49.755Z,63114.88
2024-04-30T08:58:19.785Z,63104.56
2024-04-30T09:00:50.496Z,63107.81
2024-04-30T09:03:18.959Z,63138.28
2024-04-30T09:05:49.503Z,63131.25
2024-04-30T09:08:17.288Z,63147.09
2024-04-30T09:10:47.542Z,63141.06
2024-04-30T09:13:14.838Z,63168.88
2024-04-30T09:15:47.255Z,63167.16
2024-04-30T09:18:14.496Z,63193.97
2024-04-30T09:20:47.588Z,63150.28
2024-04-30T09:23:25.714Z,63161.78
2024-04-30T09:25:55.525Z,63207.00
2024-04-30T09:28:22.980Z,63209.16
2024-04-30T09:31:02.892Z,63261.44
2024-04-30T09:33:30.235Z,63239.09
2024-04-30T09:36:05.711Z,63244.03
2024-04-30T09:38:40.478Z,63179.69
2024-04-30T09:41:12.012Z,63246.75
2024-04-30T09:43:42.952Z,63295.25
2024-04-30T09:46:13.761Z,63265.31
2024-04-30T09:48:45.670Z,63293.69
2024-04-30T09:51:14.227Z,63354.22
2024-04-30T09:53:44.734Z,63248.28
2024-04-30T09:56:14.135Z,63298.03
2024-04-30T09:58:44.071Z,63320.38
2024-04-30T10:01:17.628Z,63285.00
2024-04-30T10:03:48.849Z,63365.09
2024-04-30T10:06:17.981Z,63343.78
2024-04-30T10:08:48.719Z,63402.19
2024-04-30T10:11:16.008Z,63309.53
2024-04-30T10:13:52.782Z,63361.84
2024-04-30T10:16:23.033Z,63401.66
2024-04-30T10:19:04.231Z,63396.75
2024-04-30T10:21:35.843Z,63394.66
2024-04-30T10:24:18.989Z,63445.88
2024-04-30T10:26:46.799Z,63372.19
2024-04-30T10:29:17.088Z,63461.22
2024-04-30T10:31:48.948Z,63429.00
2024-04-30T10:34:20.188Z,63505.88
2024-04-30T10:36:48.675Z,63502.19
2024-04-30T10:39:37.445Z,63451.94
2024-04-30T10:42:07.411Z,63473.28
2024-04-30T10:44:45.201Z,63438.28
2024-04-30T10:47:15.084Z,63502.72
2024-04-30T10:49:44.885Z,63477.03
2024-04-30T10:52:21.628Z,63486.94
2024-04-30T10:54:51.750Z,63562.13
2024-04-30T10:57:28.822Z,63462.28
2024-04-30T11:00:02.650Z,63436.63
2024-04-30T11:02:32.987Z,63498.38
2024-04-30T11:05:03.985Z,63532.19
2024-04-30T11:07:31.298Z,63571.53
2024-04-30T11:10:01.169Z,63552.44
2024-04-30T11:12:30.936Z,63539.34
2024-04-30T11:14:58.052Z,63597.81
2024-04-30T11:17:28.866Z,63642.09
2024-04-30T11:19:59.395Z,63613.72
2024-04-30T11:22:29.367Z,63644.28
2024-04-30T11:24:56.504Z,63577.56
2024-04-30T11:27:26.268Z,63632.81
2024-04-30T11:29:53.366Z,63706.66
2024-04-30T11:32:23.206Z,63664.56
2024-04-30T11:34:53.652Z,63645.88
2024-04-30T11:37:26.195Z,63588.00
2024-04-30T11:39:53.504Z,63666.75
2024-04-30T11:42:27.651Z,63613.66
2024-04-30T11:45:01.377Z,63664.53
2024-04-30T11:47:31.208Z,63717.63
2024-04-30T11:49:59.040Z,63742.84
2024-04-30T11:52:31.570Z,63705.63
2024-04-30T11:55:01.380Z,63605.41
2024-04-30T11:57:31.153Z,63735.66
2024-04-30T11:59:58.308Z,63715.34
2024-04-30T12:02:28.074Z,63734.09
2024-04-30T12:04:55.358Z,63711.09
2024-04-30T12:07:25.171Z,63704.50
2024-04-30T12:09:54.967Z,63741.66
2024-04-30T12:12:24.783Z,63757.50
2024-04-30T12:14:51.936Z,63737.28
2024-04-30T12:17:21.916Z,63729.09
2024-04-30T12:19:49.144Z,63776.09
2024-04-30T12:22:18.913Z,63726.94
2024-04-30T12:24:46.071Z,63759.72
2024-04-30T12:27:18.502Z,63766.25
2024-04-30T12:29:47.637Z,63729.59
2024-04-30T12:32:17.793Z,63739.47
2024-04-30T12:34:45.002Z,63729.59
2024-04-30T12:37:14.853Z,63765.16
2024-04-30T12:39:42.002Z,63781.09
2024-04-30T12:42:11.799Z,63768.00
2024-04-30T12:44:41.669Z,63778.94
2024-04-30T12:47:11.432Z,63776.19
2024-04-30T12:49:38.619Z,63820.00
2024-04-30T12:52:08.659Z,63787.66
2024-04-30T12:54:35.931Z,63812.88
2024-04-30T12:57:05.714Z,63899.34
2024-04-30T12:59:32.814Z,63830.91
2024-04-30T13:02:05.527Z,63823.19
2024-04-30T13:04:32.897Z,63875.81
2024-04-30T13:07:02.760Z,63880.81
2024-04-30T13:09:32.794Z,63829.28
2024-04-30T13:12:02.611Z,63882.91
2024-04-30T13:14:29.777Z,63900.50
2024-04-30T13:16:59.511Z,63944.31
2024-04-30T13:19:29.300Z,63948.78
2024-04-30T13:21:59.041Z,63879.69
2024-04-30T13:24:28.893Z,63897.78
2024-04-30T13:26:56.016Z,63901.09
2024-04-30T13:29:26.016Z,63874.75
2024-04-30T13:31:54.997Z,63899.34
2024-04-30T13:34:24.815Z,63912.69
2024-04-30T13:36:54.626Z,63896.69
2024-04-30T13:39:27.270Z,63971.22
2024-04-30T13:41:54.688Z,63895.63
2024-04-30T13:44:24.471Z,63888.44
2024-04-30T13:46:51.906Z,63896.06
2024-04-30T13:49:21.785Z,63937.78
2024-04-30T13:51:48.949Z,64012.34
2024-04-30T13:54:21.319Z,63959.72
2024-04-30T13:56:48.436Z,63934.53
2024-04-30T13:59:18.227Z,63970.13
2024-04-30T14:01:45.435Z,63912.00
2024-04-30T14:04:15.322Z,63909.22
2024-04-30T14:06:43.995Z,63995.94
2024-04-30T14:09:13.767Z,63935.59
2024-04-30T14:11:43.598Z,63961.91
2024-04-30T14:14:13.330Z,63966.88
2024-04-30T14:16:43.699Z,63981.63
2024-04-30T14:19:13.659Z,63915.34
2024-04-30T14:21:40.837Z,63999.66
2024-04-30T14:24:10.738Z,63965.69
2024-04-30T14:26:38.078Z,63980.53
2024-04-30T14:29:12.516Z,63972.84
2024-04-30T14:31:41.317Z,63925.75
2024-04-30T14:34:11.255Z,63967.97
2024-04-30T14:36:39.252Z,63960.28
2024-04-30T14:39:12.205Z,63969.09
2024-04-30T14:41:40.449Z,63956.38
2024-04-30T14:44:12.872Z,63918.03
2024-04-30T14:46:41.629Z,63956.94
2024-04-30T14:49:11.792Z,63955.91
2024-04-30T14:51:40.554Z,63992.56
2024-04-30T14:54:12.276Z,63967.94
2024-04-30T14:56:39.532Z,63981.63
2024-04-30T14:59:09.481Z,63908.25
2024-04-30T15:01:44.340Z,63957.50
2024-04-30T15:04:14.456Z,63913.16
2024-04-30T15:06:41.740Z,63915.81
2024-04-30T15:09:12.679Z,63903.25
2024-04-30T15:11:40.127Z,63898.84
2024-04-30T15:14:09.917Z,63941.03
2024-04-30T15:16:43.857Z,63954.81
2024-04-30T15:19:13.829Z,63935.53
2024-04-30T15:21:44.568Z,63939.97
2024-04-30T15:24:14.539Z,63946.53
2024-04-30T15:26:41.706Z,63914.69
2024-04-30T15:29:13.965Z,63945.41
2024-04-30T15:31:43.989Z,63981.13
2024-04-30T15:34:13.910Z,63987.69
2024-04-30T15:36:42.810Z,63930.59
2024-04-30T15:39:12.623Z,63903.75
2024-04-30T15:41:39.750Z,63915.88
2024-04-30T15:44:09.515Z,63885.75
2024-04-30T15:46:39.355Z,63894.44
2024-04-30T15:49:14.007Z,63876.41
2024-04-30T15:51:41.443Z,63880.19
2024-04-30T15:54:13.096Z,63879.72
2024-04-30T15:56:46.621Z,63875.84
2024-04-30T15:59:23.812Z,63851.19
2024-04-30T16:01:51.295Z,63863.84
2024-04-30T16:04:23.912Z,63855.63
2024-04-30T16:06:51.130Z,63853.28
2024-04-30T16:09:20.947Z,63876.94
2024-04-30T16:11:48.156Z,63846.31
2024-04-30T16:14:18.399Z,63827.13
2024-04-30T16:16:45.679Z,63846.81
2024-04-30T16:19:15.955Z,63817.78
2024-04-30T16:21:46.776Z,63811.16
2024-04-30T16:24:16.602Z,63784.94
2024-04-30T16:26:43.808Z,63779.94
2024-04-30T16:29:13.593Z,63753.66
2024-04-30T16:31:41.003Z,63744.44
2024-04-30T16:34:10.920Z,63740.59
2024-04-30T16:36:38.091Z,63750.97
2024-04-30T16:39:10.511Z,63736.16
2024-04-30T16:41:37.673Z,63712.13
2024-04-30T16:44:07.802Z,63715.97
2024-04-30T16:46:35.116Z,63706.63
2024-04-30T16:49:08.575Z,63680.91
2024-04-30T16:51:36.393Z,63693.44
2024-04-30T16:54:06.571Z,63690.75
2024-04-30T16:56:39.152Z,63691.91
2024-04-30T16:59:08.982Z,63682.56
2024-04-30T17:01:44.635Z,63672.75
2024-04-30T17:04:13.478Z,63680.91
2024-04-30T17:06:48.103Z,63663.47
2024-04-30T17:09:19.702Z,63655.22
2024-04-30T17:11:49.720Z,63647.00
2024-04-30T17:14:19.593Z,63631.16
2024-04-30T17:16:46.804Z,63621.88
2024-04-30T17:19:16.671Z,63618.53
2024-04-30T17:21:44.610Z,63603.81
2024-04-30T17:24:16.629Z,63591.78
2024-04-30T17:26:45.478Z,63582.91
2024-04-30T17:29:19.520Z,63549.22
2024-04-30T17:31:49.398Z,63522.91
2024-04-30T17:34:16.749Z,63505.41
2024-04-30T17:36:50.120Z,63501.50
2024-04-30T17:39:18.139Z,63480.31
2024-04-30T17:41:48.396Z,63468.91
2024-04-30T17:44:18.244Z,63460.66
2024-04-30T17:46:48.107Z,63468.22
2024-04-30T17:49:15.423Z,63456.25
2024-04-30T17:51:45.855Z,63449.16
2024-04-30T17:54:14.696Z,63431.72
2024-04-30T17:56:44.591Z,63430.47
2024-04-30T17:59:11.782Z,63403.88
2024-04-30T18:01:47.135Z,63391.88
2024-04-30T18:04:14.641Z,63387.47
2024-04-30T18:06:45.130Z,63379.25
2024-04-30T18:09:12.456Z,63367.31
2024-04-30T18:11:42.367Z,63359.63
2024-04-30T18:14:09.560Z,63339.47
2024-04-30T18:16:43.538Z,63331.75
2024-04-30T18:19:10.712Z,63315.47
2024-04-30T18:21:44.378Z,63324.16
2024-04-30T18:24:11.924Z,63314.38
2024-04-30T18:26:42.759Z,63319.19
2024-04-30T18:29:10.459Z,63309.88
2024-04-30T18:31:40.294Z,63288.22
2024-04-30T18:34:10.220Z,63289.25
2024-04-30T18:36:40.304Z,63277.81
2024-04-30T18:39:07.451Z,63281.06
2024-04-30T18:41:37.315Z,63278.97
2024-04-30T18:44:04.703Z,63248.47
2024-04-30T18:46:34.483Z,63260.41
2024-04-30T18:49:01.933Z,63244.59
2024-04-30T18:51:35.642Z,63236.41
2024-04-30T18:54:03.881Z,63233.16
2024-04-30T18:56:33.655Z,63233.09
2024-04-30T18:59:00.792Z,63223.88
2024-04-30T19:01:30.592Z,63205.84
2024-04-30T19:03:57.898Z,63200.94
2024-04-30T19:06:27.926Z,63180.25
2024-04-30T19:08:57.676Z,63163.84
2024-04-30T19:11:27.536Z,63154.69
2024-04-30T19:13:54.755Z,63156.31
2024-04-30T19:16:24.586Z,63143.84
2024-04-30T19:18:51.828Z,63142.16
2024-04-30T19:21:21.660Z,63128.53
2024-04-30T19:23:48.871Z,63137.81
2024-04-30T19:26:21.359Z,63124.59
2024-04-30T19:28:48.718Z,63108.88
2024-04-30T19:31:21.086Z,63097.50
2024-04-30T19:33:48.915Z,63077.91
2024-04-30T19:36:20.479Z,63106.66
2024-04-30T19:38:47.769Z,63089.78
2024-04-30T19:41:17.720Z,63083.91
2024-04-30T19:43:47.699Z,63096.91
2024-04-30T19:46:21.641Z,63064.38
2024-04-30T19:48:52.329Z,63061.03
2024-04-30T19:51:23.551Z,63044.66
2024-04-30T19:53:51.412Z,63050.59
2024-04-30T19:56:22.047Z,63028.38
2024-04-30T19:58:57.192Z,63028.81
2024-04-30T20:01:29.423Z,63025.66
2024-04-30T20:03:57.958Z,63016.34
2024-04-30T20:06:28.197Z,63005.47
2024-04-30T20:08:55.403Z,62990.84
2024-04-30T20:11:26.303Z,62989.09
2024-04-30T20:13:56.535Z,62981.00
2024-04-30T20:16:27.747Z,62969.69
2024-04-30T20:18:55.269Z,62975.56
2024-04-30T20:21:25.683Z,62963.06
2024-04-30T20:23:54.430Z,62956.59
2024-04-30T20:26:24.231Z,62953.88
2024-04-30T20:28:51.375Z,62965.28
2024-04-30T20:31:23.792Z,62946.28
2024-04-30T20:33:51.145Z,62944.56
2024-04-30T20:36:21.508Z,62953.75
2024-04-30T20:38:48.935Z,62947.34
2024-04-30T20:41:19.116Z,62922.19
2024-04-30T20:43:46.307Z,62933.28
2024-04-30T20:46:16.055Z,62946.28
2024-04-30T20:48:46.061Z,62936.53
2024-04-30T20:51:16.081Z,62929.41
2024-04-30T20:53:44.007Z,62917.91
2024-04-30T20:56:13.891Z,62903.38
2024-04-30T20:58:41.301Z,62897.88
2024-04-30T21:01:16.682Z,62889.22
2024-04-30T21:03:46.960Z,62908.63
2024-04-30T21:06:16.906Z,62880.50
2024-04-30T21:08:44.048Z,62890.81
2024-04-30T21:11:15.238Z,62836.41
2024-04-30T21:13:42.663Z,62860.31
2024-04-30T21:16:12.626Z,62845.13
2024-04-30T21:18:40.028Z,62852.72
2024-04-30T21:21:12.641Z,62844.56
2024-04-30T21:23:42.968Z,62811.56
2024-04-30T21:26:13.495Z,62838.09
2024-04-30T21:28:41.402Z,62820.13
2024-04-30T21:31:11.217Z,62813.59
2024-04-30T21:33:44.085Z,62787.47
2024-04-30T21:36:14.468Z,62802.81
2024-04-30T21:38:44.232Z,62802.19
2024-04-30T21:41:11.391Z,62771.25
2024-04-30T21:43:41.177Z,62771.25
2024-04-30T21:46:08.875Z,62747.84
2024-04-30T21:48:42.018Z,62744.19
2024-04-30T21:51:11.859Z,62751.16
2024-04-30T21:53:41.628Z,62757.06
2024-04-30T21:56:11.395Z,62759.78
2024-04-30T21:58:38.545Z,62750.69
2024-04-30T22:01:11.695Z,62735.97
2024-04-30T22:03:40.712Z,62744.66
2024-04-30T22:06:10.609Z,62747.91
2024-04-30T22:08:41.984Z,62750.63
2024-04-30T22:11:12.236Z,62754.38
2024-04-30T22:13:39.399Z,62754.91
2024-04-30T22:16:10.120Z,62753.31
2024-04-30T22:18:37.390Z,62738.66
2024-04-30T22:21:10.800Z,62736.03
2024-04-30T22:23:39.556Z,62729.38
2024-04-30T22:26:12.732Z,62736.50
2024-04-30T22:28:39.889Z,62748.44
2024-04-30T22:31:10.028Z,62744.72
2024-04-30T22:33:37.366Z,62753.81
2024-04-30T22:36:07.782Z,62737.66
2024-04-30T22:38:35.311Z,62714.41
2024-04-30T22:41:05.156Z,62729.47
2024-04-30T22:43:34.970Z,62716.50
2024-04-30T22:46:05.127Z,62709.94
2024-04-30T22:48:32.571Z,62709.38
2024-04-30T22:51:02.523Z,62710.00
2024-04-30T22:53:37.705Z,62704.56
2024-04-30T22:56:14.269Z,62712.03
2024-04-30T22:58:44.092Z,62713.66
2024-04-30T23:01:13.924Z,62693.72
2024-04-30T23:03:41.192Z,62692.06
2024-04-30T23:06:10.995Z,62677.38
2024-04-30T23:08:39.446Z,62694.25
2024-04-30T23:11:09.289Z,62705.09
2024-04-30T23:13:36.471Z,62704.56
2024-04-30T23:16:09.684Z,62699.06
2024-04-30T23:18:36.923Z,62701.31
2024-04-30T23:21:07.112Z,62724.09
2024-04-30T23:23:34.240Z,62727.78
2024-04-30T23:26:04.121Z,62722.41
2024-04-30T23:28:31.258Z,62720.84
2024-04-30T23:31:01.059Z,62718.59
2024-04-30T23:33:33.464Z,62708.41
2024-04-30T23:36:00.684Z,62699.19
2024-04-30T23:38:30.593Z,62687.66
2024-04-30T23:40:57.733Z,62685.59
2024-04-30T23:43:27.482Z,62699.53
2024-04-30T23:45:54.712Z,62695.88
2024-04-30T23:48:24.551Z,62688.84
2024-04-30T23:50:54.367Z,62701.78
2024-04-30T23:53:24.139Z,62716.97
2024-04-30T23:56:04.081Z,62732.72
2024-04-30T23:58:35.144Z,62704.97
